Boyle, MS (38730)

3:25 AM CST on December 10, 2016 (GMT -0600)
Cleveland | | Change Station

Elev 128 ft 33.70 °N, 90.75 °W | Updated 3 seconds ago

Clear
Clear
28.2 °F
Feels Like 28 °F
N
1.1
Wind Variable Wind from ENE
Gusts 2.5 mph

Today
High -- | Low -- °F
--% Chance of Precip.
Yesterday
High -- | Low -- °F
Precip. -- in
Pressure 30.59 in
Visibility 10.0 miles
Clouds Clear
Windchill 28 °F
Dew Point 21 °F
Humidity 73%
Rainfall 0.00 in
Snow Depth Not available.
6:57 AM 4:54 PM
Waxing Gibbous, 82% visible
METAR KRNV 100915Z AUTO 02005KT 10SM CLR M03/M04 A3059 RMK AO2 T10261036
Pressure 30.59 in
Visibility 10.0 miles
Clouds Clear
Windchill 28 °F
Dew Point 21 °F
Humidity 73%
Rainfall 0.00 in
Snow Depth Not available.
6:57 AM 4:54 PM
Waxing Gibbous, 82% visible
METAR KRNV 100915Z AUTO 02005KT 10SM CLR M03/M04 A3059 RMK AO2 T10261036

10-Day Weather Forecast

Almanac

Astronomy

Dec. 10, 2016 Rise Set
Actual Time
Civil Twilight
Nautical Twilight
Astronomical Twilight
Moon
Length of Visible Light
Length of Day
Tomorrow will be .
, % of the Moon is Illuminated

Today's Extremes

State Highs State Lows

Community

WunderPhotos

Upload Photos

1,956,538 photos uploaded!

WunderBlog® & News

Nearby

Air Quality

  Air Quality AQ Index Pollutant
Not available.

Snow Depth

Station Depth Elevation

Earthquake Activity

City Distance Mag. Time & Date
Minimum magnitude displayed is 2.5.

Coastal Water Temperatures

Place Temperature

Stations

Nearby Weather Stations

Station Location Temp. Windchill Dew Point Humidity Wind Precip. Elev Updated Type
                   

Watches & Warnings

There are currently no watches in effect.